Portada
METAR-TAF:

METAR-TAF

Aeroports :

Çorlu, Turquia

latitud: 41-08N, longitud: 027-55E, altitud: 173 m

Observació

L'informe es va fer fa 24 minuts, a les 08:20 UTC
Vent 6 kt del Est/Sud-Est
Temperatura 24°C
Humitat 54%
Pressió 1012 hPa
Visibilitat 10 km o més
sense núvols per sota de 1500 mi sense presència de cumulonimbus.

METAR: LTBU 060820Z 12006KT CAVOK 24/14 Q1012 RMK RWY22 12005KT 080V150

Hora: 11:44 (08:44 UTC)

Pronòstic

L'informe es va fer fa 4 hores i 4 minuts, a les 04:40 UTC
Pronòstic vàlid del 06 a les 06 UTC al 07 a les 06 UTC
Vent 12 kt del Est/Sud-Est
Visibilitat 10 km o més
sense núvols per sota de 1500 mi sense presència de cumulonimbus.
Evolucionant progressivament
l' 06 a les 15 UTC al 06 a les 18 UTC
Vent 2 kt amb direcció variable

TAF: LTBU 060440Z 0606/0706 12012KT CAVOK BECMG 0615/0618 VRB02KT

Observacions i pronòstics meteorològics de més de 4000 aeroports (METAR i TAF).

Les estacions disponibles són els punts grocs i vermells al mapa.

Posi el ratolí al punt desitjat per veure el nom de l'estació.

Feu clic per veure les observacions i els pronòstics meteorològics.

Per canviar el mapa: feu clic els botons verds amb una creu de color negre per apropar; al botó verd amb un guió per allunyar la imatge; o en les fletxes verdes per a mapes adjacents.


METAR-TAF: